Time;durP1;ratioP1;P1;durP2;ratioP2;P2;SDS_P1;SDS_P2;PMS_P1;PMS_P2;Temp;Humidity;BMP_temperature;BMP_pressure;BME280_temperature;BME280_humidity;BME280_pressure;Samples;Min_cycle;Max_cycle;Signal;HPM_P1;HPM_P2
2022/11/20 00:01:06;;;;;;;27.00;12.60;;;;;;;-8.79;76.65;99124.32;102043;1300;74200;-19
2022/11/20 00:03:34;;;;;;;12.80;6.70;;;;;;;-8.98;77.08;99119.63;101830;1297;75001;-19
2022/11/20 00:06:06;;;;;;;22.90;8.40;;;;;;;-8.41;77.22;99117.29;101972;1289;61577;-19
2022/11/20 00:08:34;;;;;;;35.00;14.80;;;;;;;-7.65;76.09;99122.33;101855;1302;61835;-19
2022/11/20 00:11:06;;;;;;;31.80;13.90;;;;;;;-7.47;75.56;99117.30;101907;1295;76323;-19
2022/11/20 00:13:40;;;;;;;86.10;33.70;;;;;;;-7.57;75.42;99127.52;101829;1295;76691;-19
2022/11/20 00:16:09;;;;;;;90.60;32.60;;;;;;;-7.78;75.89;99131.67;101884;1302;75003;-19
2022/11/20 00:18:37;;;;;;;64.00;24.50;;;;;;;-8.02;76.06;99126.23;101732;1294;61602;-19
2022/11/20 00:21:06;;;;;;;47.20;20.10;;;;;;;-8.27;76.54;99115.55;101852;1302;62620;-19
2022/11/20 00:23:33;;;;;;;40.30;16.60;;;;;;;-8.50;76.54;99117.67;101828;1297;76407;-19
2022/11/20 00:26:13;;;;;;;16.40;7.90;;;;;;;-8.68;77.13;99113.52;101967;1295;76785;-19
2022/11/20 00:28:41;;;;;;;12.30;5.70;;;;;;;-8.34;78.07;99105.30;101794;1307;75053;-19
2022/11/20 00:31:13;;;;;;;21.70;9.80;;;;;;;-7.53;76.58;99104.04;101794;1306;61194;-19
2022/11/20 00:33:42;;;;;;;26.50;14.90;;;;;;;-7.27;75.86;99110.24;101679;1302;61581;-19
2022/11/20 00:36:11;;;;;;;28.80;14.70;;;;;;;-7.37;75.22;99103.92;101876;1304;76223;-19
2022/11/20 00:38:39;;;;;;;28.30;14.10;;;;;;;-7.61;75.65;99091.45;101827;1298;75592;-19
2022/11/20 00:41:09;;;;;;;25.10;10.60;;;;;;;-7.93;75.72;99084.89;101972;1299;75254;-19
2022/11/20 00:43:37;;;;;;;24.70;10.20;;;;;;;-8.28;75.69;99089.27;101899;1303;61842;-19
2022/11/20 00:46:09;;;;;;;20.40;8.30;;;;;;;-8.59;76.45;99099.18;102008;1302;61652;-19
2022/11/20 00:48:37;;;;;;;15.00;6.50;;;;;;;-8.88;77.10;99105.14;101885;1306;76248;-19
2022/11/20 00:51:06;;;;;;;9.20;4.90;;;;;;;-8.83;77.62;99108.16;101885;1295;75806;-19
2022/11/20 00:53:33;;;;;;;9.80;5.10;;;;;;;-8.05;77.40;99097.92;101893;1296;75332;-19
2022/11/20 00:56:06;;;;;;;17.60;9.40;;;;;;;-7.65;76.42;99101.91;101870;1304;61218;-19
2022/11/20 00:58:39;;;;;;;16.90;8.70;;;;;;;-7.74;75.49;99117.16;101517;1302;62817;-19
2022/11/20 01:01:10;;;;;;;19.50;8.90;;;;;;;-7.99;75.86;99110.21;101869;1298;76340;-19
2022/11/20 01:03:40;;;;;;;15.40;7.70;;;;;;;-8.27;76.20;99115.73;101861;1298;76746;-19
2022/11/20 01:06:16;;;;;;;15.80;7.60;;;;;;;-8.50;76.77;99124.58;101825;1305;75185;-19
2022/11/20 01:08:43;;;;;;;15.00;8.20;;;;;;;-8.78;77.42;99121.27;101872;1303;61672;-19
2022/11/20 01:11:22;;;;;;;7.30;3.90;;;;;;;-8.95;78.15;99123.32;101874;1301;62683;-19
2022/11/20 01:13:50;;;;;;;11.90;5.30;;;;;;;-8.52;78.67;99125.23;102055;1295;76304;-20
2022/11/20 01:16:17;;;;;;;14.60;7.90;;;;;;;-7.65;77.57;99126.20;101919;1298;75401;-19
2022/11/20 01:18:47;;;;;;;17.80;8.50;;;;;;;-7.34;76.02;99134.43;102090;1300;75279;-19
2022/11/20 01:21:16;;;;;;;16.40;8.10;;;;;;;-7.44;75.86;99136.52;101856;1305;61991;-19
2022/11/20 01:23:44;;;;;;;16.30;8.30;;;;;;;-7.65;76.07;99145.60;101944;1302;62851;-19
2022/11/20 01:26:14;;;;;;;16.70;9.10;;;;;;;-7.89;76.47;99149.60;101875;1297;74217;-19
2022/11/20 01:28:42;;;;;;;11.80;6.30;;;;;;;-8.07;76.98;99153.39;101958;1303;75160;-19
2022/11/20 01:31:17;;;;;;;11.40;5.90;;;;;;;-8.23;77.45;99152.09;101963;1302;73568;-19
2022/11/20 01:33:45;;;;;;;15.90;7.10;;;;;;;-8.40;77.67;99161.23;101962;1302;61589;-19
2022/11/20 01:36:13;;;;;;;6.40;3.30;;;;;;;-8.44;77.88;99157.89;101862;1301;63060;-19
2022/11/20 01:38:41;;;;;;;11.20;6.50;;;;;;;-7.66;78.46;99159.07;101988;1304;75309;-19
2022/11/20 01:41:09;;;;;;;17.90;7.90;;;;;;;-6.97;77.17;99153.21;102115;1295;76688;-19
2022/11/20 01:43:37;;;;;;;9.30;5.50;;;;;;;-6.84;76.50;99148.88;101895;1301;74194;-19
2022/11/20 01:46:15;;;;;;;11.60;6.80;;;;;;;-6.97;76.34;99140.71;101928;1305;61319;-19
2022/11/20 01:48:49;;;;;;;14.30;7.40;;;;;;;-7.17;76.23;99138.52;101864;1296;62596;-19
2022/11/20 01:51:41;;;;;;;14.20;8.50;;;;;;;-7.36;76.60;99130.55;102089;1300;75349;-20
2022/11/20 01:54:13;;;;;;;14.30;6.50;;;;;;;-7.52;77.05;99132.70;101998;1302;76823;-19
2022/11/20 01:56:41;;;;;;;13.10;7.00;;;;;;;-7.66;77.11;99133.96;101844;1304;75034;-19
2022/11/20 01:59:09;;;;;;;15.00;7.30;;;;;;;-7.78;77.95;99135.21;102013;1304;62862;-19
2022/11/20 02:01:36;;;;;;;13.10;6.50;;;;;;;-7.89;78.65;99136.78;102033;1303;62629;-19
2022/11/20 02:04:04;;;;;;;5.30;2.70;;;;;;;-7.81;78.70;99137.59;102102;1302;75293;-19
2022/11/20 02:06:35;;;;;;;12.50;6.60;;;;;;;-6.98;78.98;99130.24;102047;1300;76583;-19
2022/11/20 02:09:02;;;;;;;22.00;9.60;;;;;;;-6.31;77.79;99122.67;101887;1298;75301;-19
2022/11/20 02:11:30;;;;;;;16.00;9.30;;;;;;;-6.16;77.20;99125.18;101940;1301;61181;-19
2022/11/20 02:13:58;;;;;;;17.90;9.20;;;;;;;-6.23;76.68;99123.25;101863;1301;61701;-19
2022/11/20 02:16:29;;;;;;;13.50;6.70;;;;;;;-6.44;76.84;99116.73;102004;1300;76375;-20
2022/11/20 02:18:58;;;;;;;13.20;6.60;;;;;;;-6.62;77.59;99116.42;101970;1295;76712;-19
2022/11/20 02:22:11;;;;;;;11.70;6.10;;;;;;;-6.79;78.04;99126.04;101809;1296;75313;-19
2022/11/20 02:24:38;;;;;;;14.90;6.40;;;;;;;-6.98;78.51;99129.08;101571;1304;61634;-19
2022/11/20 02:27:10;;;;;;;14.70;6.60;;;;;;;-7.08;79.25;99124.10;101848;1302;61770;-19
2022/11/20 02:29:46;;;;;;;12.80;5.00;;;;;;;-7.17;79.50;99128.73;101860;1305;76474;-19
2022/11/20 02:32:33;;;;;;;12.10;5.90;;;;;;;-7.24;80.18;99132.84;102005;1305;76649;-19
2022/11/20 02:35:31;;;;;;;9.50;5.20;;;;;;;-7.31;80.45;99134.40;102108;1294;75211;-19
2022/11/20 02:38:00;;;;;;;6.10;3.60;;;;;;;-7.38;80.39;99137.48;101992;1299;61910;-19
2022/11/20 02:40:28;;;;;;;8.10;3.60;;;;;;;-7.06;81.01;99137.73;101875;1302;62864;-19
2022/11/20 02:42:56;;;;;;;9.30;5.20;;;;;;;-6.01;80.65;99133.27;102077;1301;76428;-19
2022/11/20 02:45:24;;;;;;;8.70;4.70;;;;;;;-5.39;79.09;99127.02;101978;1301;75569;-19
2022/11/20 02:47:52;;;;;;;8.00;4.80;;;;;;;-5.31;78.29;99121.80;101883;1290;75194;-19
2022/11/20 02:50:19;;;;;;;10.10;6.10;;;;;;;-5.49;77.64;99111.93;102050;1293;61974;-19
2022/11/20 02:52:50;;;;;;;8.90;5.50;;;;;;;-5.72;77.84;99109.39;102023;1294;61529;-19
2022/11/20 02:55:17;;;;;;;10.00;6.10;;;;;;;-5.93;78.22;99111.20;102018;1285;75967;-19
2022/11/20 02:57:45;;;;;;;19.50;9.80;;;;;;;-6.14;78.44;99105.91;101958;1293;76855;-19
2022/11/20 03:00:13;;;;;;;39.00;17.40;;;;;;;-6.31;78.96;99103.58;101986;1294;75333;-19
2022/11/20 03:02:40;;;;;;;49.30;18.80;;;;;;;-6.51;79.19;99105.48;102079;1304;62843;-19
2022/11/20 03:05:13;;;;;;;50.10;20.60;;;;;;;-6.65;79.82;99109.88;101929;1295;62925;-19
2022/11/20 03:07:41;;;;;;;25.50;10.30;;;;;;;-6.73;80.29;99119.06;101984;1301;76050;-19
2022/11/20 03:10:09;;;;;;;15.80;7.50;;;;;;;-6.19;80.49;99119.47;101979;1294;76667;-20
2022/11/20 03:12:36;;;;;;;30.20;10.30;;;;;;;-5.23;79.38;99111.20;101857;1298;75622;-19
2022/11/20 03:15:05;;;;;;;43.50;17.00;;;;;;;-4.88;78.20;99107.40;101970;1301;62094;-19
2022/11/20 03:17:32;;;;;;;40.90;16.20;;;;;;;-4.95;77.37;99111.59;101818;1298;62805;-20
2022/11/20 03:20:00;;;;;;;26.50;10.40;;;;;;;-5.13;77.37;99101.38;102078;1300;76223;-19
2022/11/20 03:22:29;;;;;;;18.60;8.40;;;;;;;-5.34;77.90;99096.65;101937;1304;74719;-19
2022/11/20 03:24:57;;;;;;;16.70;7.80;;;;;;;-5.58;78.07;99092.26;101872;1294;75214;-19
2022/11/20 03:27:24;;;;;;;12.90;6.40;;;;;;;-5.79;78.31;99088.02;101017;1304;1366607;-19
2022/11/20 03:29:52;;;;;;;10.30;5.80;;;;;;;-5.98;78.61;99078.80;102069;1296;61146;-19
2022/11/20 03:32:22;;;;;;;14.30;7.30;;;;;;;-6.18;79.15;99074.86;101953;1301;75046;-19
2022/11/20 03:34:50;;;;;;;8.50;4.20;;;;;;;-6.33;79.86;99069.80;101969;1295;76750;-19
2022/11/20 03:37:17;;;;;;;10.60;5.50;;;;;;;-5.86;80.40;99066.63;101984;1294;75216;-19
2022/11/20 03:39:45;;;;;;;11.80;5.50;;;;;;;-5.09;79.02;99063.57;102097;1301;61963;-20
2022/11/20 03:44:58;;;;;;;10.10;5.60;;;;;;;-4.99;77.29;99046.63;102036;1297;76450;-19
2022/11/20 03:47:26;;;;;;;8.40;5.30;;;;;;;-5.19;77.68;99044.77;101962;1300;76755;-19
2022/11/20 03:49:53;;;;;;;12.70;6.30;;;;;;;-5.40;78.28;99051.55;101995;1304;75123;-19
2022/11/20 03:52:21;;;;;;;15.00;5.60;;;;;;;-5.57;78.71;99057.40;102067;1301;62898;-19
2022/11/20 03:54:48;;;;;;;9.30;5.30;;;;;;;-5.74;79.25;99058.17;101949;1294;61871;-19
2022/11/20 03:57:16;;;;;;;12.40;6.50;;;;;;;-5.89;79.60;99054.15;101912;1304;75292;-19
2022/11/20 03:59:43;;;;;;;8.10;4.80;;;;;;;-6.00;80.26;99052.64;102030;1301;75987;-19
2022/11/20 04:02:11;;;;;;;8.40;3.00;;;;;;;-6.06;80.33;99053.23;102041;1301;74235;-19
2022/11/20 04:04:38;;;;;;;10.60;6.50;;;;;;;-5.49;80.87;99050.66;102074;1294;63419;-20
2022/11/20 04:07:06;;;;;;;11.40;6.30;;;;;;;-4.57;79.56;99047.70;101837;1295;61134;-20
2022/11/20 04:09:33;;;;;;;13.90;8.40;;;;;;;-4.31;77.96;99050.40;101903;1301;76416;-19
2022/11/20 04:12:01;;;;;;;15.30;8.00;;;;;;;-4.39;77.13;99052.42;102014;1301;74890;-19
2022/11/20 04:14:28;;;;;;;10.60;5.20;;;;;;;-4.56;77.21;99045.33;101948;1302;74165;-19
2022/11/20 04:16:56;;;;;;;15.20;8.10;;;;;;;-4.77;77.96;99038.59;101905;1302;61862;-19
2022/11/20 04:19:23;;;;;;;8.60;5.40;;;;;;;-5.09;78.22;99030.38;101903;1301;61198;-19
2022/11/20 04:21:50;;;;;;;11.60;7.10;;;;;;;-5.26;79.22;99028.80;101938;1301;76418;-19
2022/11/20 04:24:18;;;;;;;11.20;7.40;;;;;;;-5.37;79.89;99030.70;101950;1301;76856;-19
2022/11/20 04:26:45;;;;;;;10.30;6.40;;;;;;;-5.50;80.42;99027.35;102064;1294;75228;-19
2022/11/20 04:29:13;;;;;;;10.70;4.10;;;;;;;-5.61;80.82;99028.02;102098;1295;64643;-19
2022/11/20 04:31:40;;;;;;;13.40;7.70;;;;;;;-5.12;80.74;99030.09;102098;1301;61568;-20
2022/11/20 04:34:11;;;;;;;12.20;6.10;;;;;;;-4.42;78.99;99024.20;102072;1301;76346;-20
2022/11/20 04:36:38;;;;;;;11.80;5.50;;;;;;;-4.17;77.62;99025.19;101889;1298;76723;-19
2022/11/20 04:39:06;;;;;;;15.80;8.40;;;;;;;-4.34;77.31;99022.15;102046;1301;74240;-19
2022/11/20 04:41:35;;;;;;;11.20;7.30;;;;;;;-4.51;77.66;99021.49;102178;1301;61135;-19
2022/11/20 04:44:04;;;;;;;17.70;9.30;;;;;;;-4.75;78.47;99016.20;101874;1301;61489;-19
2022/11/20 04:46:36;;;;;;;11.20;7.40;;;;;;;-4.93;78.73;99017.91;101886;1297;76428;-19
2022/11/20 04:49:04;;;;;;;19.60;12.40;;;;;;;-5.13;79.53;99021.47;101998;1301;76889;-19
2022/11/20 04:51:32;;;;;;;17.90;10.80;;;;;;;-5.30;79.96;99013.83;102215;1294;75261;-19
2022/11/20 04:54:02;;;;;;;15.60;8.60;;;;;;;-5.42;80.55;99006.91;101994;1303;62635;-19
2022/11/20 04:56:30;;;;;;;6.40;3.80;;;;;;;-5.50;80.96;98997.73;101875;1300;62744;-19
2022/11/20 04:59:02;;;;;;;6.00;4.50;;;;;;;-4.99;80.77;98995.82;102134;1301;76423;-19
2022/11/20 05:01:30;;;;;;;2.90;2.00;;;;;;;-4.21;79.31;98994.76;101788;1301;76482;-19
2022/11/20 05:03:58;;;;;;;6.30;4.60;;;;;;;-4.04;77.65;98996.95;102029;1301;74196;-19
2022/11/20 05:06:25;;;;;;;8.80;5.40;;;;;;;-4.21;77.35;98984.77;101866;1304;62239;-19
2022/11/20 05:08:53;;;;;;;14.60;7.90;;;;;;;-4.48;77.65;98976.70;102030;1301;61488;-19
2022/11/20 05:11:23;;;;;;;10.50;6.40;;;;;;;-4.77;78.21;98968.31;102018;1295;76510;-20
2022/11/20 05:13:52;;;;;;;22.60;7.90;;;;;;;-5.04;78.87;98966.29;101790;1300;76573;-19
2022/11/20 05:16:23;;;;;;;23.00;7.60;;;;;;;-5.23;79.67;98966.98;102122;1301;73033;-19
2022/11/20 05:18:52;;;;;;;17.30;8.30;;;;;;;-4.98;80.24;98968.20;102000;1304;63550;-19
2022/11/20 05:21:20;;;;;;;21.70;9.20;;;;;;;-4.29;79.23;98962.89;101889;1302;62884;-19
2022/11/20 05:23:48;;;;;;;13.40;7.20;;;;;;;-4.09;78.23;98961.77;101986;1300;76328;-20
2022/11/20 05:26:21;;;;;;;11.40;6.40;;;;;;;-4.16;77.87;98961.77;101973;1301;76673;-19
2022/11/20 05:28:49;;;;;;;7.50;4.40;;;;;;;-4.38;78.13;98957.33;101971;1301;75360;-19
2022/11/20 05:31:23;;;;;;;7.70;5.10;;;;;;;-4.59;78.76;98957.59;101875;1302;61903;-19
2022/11/20 05:33:54;;;;;;;10.00;5.30;;;;;;;-4.77;79.27;98959.30;101562;1301;62849;-19
2022/11/20 05:36:22;;;;;;;4.10;3.10;;;;;;;-4.91;79.77;98958.94;101894;1305;76307;-20
2022/11/20 05:38:50;;;;;;;8.80;4.70;;;;;;;-4.92;80.42;98957.26;101899;1295;76735;-19
2022/11/20 05:41:20;;;;;;;7.60;4.30;;;;;;;-4.24;80.20;98955.85;101937;1294;75143;-20
2022/11/20 05:43:49;;;;;;;8.90;4.90;;;;;;;-3.80;78.75;98959.05;102075;1304;61175;-19
2022/11/20 05:46:20;;;;;;;7.40;5.40;;;;;;;-3.77;77.65;98966.63;101908;1306;63115;-20
2022/11/20 05:48:55;;;;;;;6.50;4.50;;;;;;;-3.96;77.32;98967.57;101886;1292;76278;-20
2022/11/20 05:51:23;;;;;;;7.50;3.70;;;;;;;-4.12;78.00;98960.30;102034;1302;77148;-19
2022/11/20 05:53:50;;;;;;;6.00;4.00;;;;;;;-4.31;78.32;98963.61;102035;1303;75170;-19
2022/11/20 05:56:19;;;;;;;7.60;4.50;;;;;;;-4.46;78.71;98959.02;101997;1303;61181;-19
2022/11/20 05:58:47;;;;;;;6.40;3.90;;;;;;;-4.58;79.32;98966.06;101876;1305;61362;-19
2022/11/20 06:01:17;;;;;;;9.20;4.70;;;;;;;-4.27;79.61;98972.67;102171;1301;76185;-19
2022/11/20 06:03:47;;;;;;;11.30;5.20;;;;;;;-3.47;78.48;98987.95;101965;1297;76814;-20
2022/11/20 06:06:15;;;;;;;6.30;4.10;;;;;;;-3.14;76.94;98995.95;101853;1304;75610;-20
2022/11/20 06:08:43;;;;;;;4.80;3.40;;;;;;;-3.24;76.03;98995.35;102163;1301;61844;-19
2022/11/20 06:11:12;;;;;;;6.30;4.40;;;;;;;-3.47;76.02;98989.15;101867;1301;61583;-21
2022/11/20 06:13:39;;;;;;;7.90;4.20;;;;;;;-3.70;76.52;98985.98;101995;1297;76727;-19
2022/11/20 06:16:09;;;;;;;15.10;5.40;;;;;;;-3.91;77.25;98985.61;101989;1301;76773;-19
2022/11/20 06:18:37;;;;;;;7.90;4.00;;;;;;;-4.09;77.98;98980.09;101809;1301;74173;-20
2022/11/20 06:21:05;;;;;;;7.70;4.10;;;;;;;-4.24;78.53;98973.14;101899;1295;62051;-19
2022/11/20 06:23:33;;;;;;;7.30;3.90;;;;;;;-3.86;78.85;98979.56;101975;1301;61595;-19
2022/11/20 06:26:02;;;;;;;8.10;4.90;;;;;;;-3.13;77.41;98982.83;102016;1301;76285;-19
2022/11/20 06:28:30;;;;;;;16.00;9.50;;;;;;;-2.90;76.14;98979.19;102010;1301;75615;-20
2022/11/20 06:30:58;;;;;;;17.40;9.30;;;;;;;-2.98;75.72;98981.44;101979;1301;74969;-20
2022/11/20 06:33:26;;;;;;;22.00;11.10;;;;;;;-3.19;75.54;98982.32;102010;1294;61868;-20
2022/11/20 06:35:56;;;;;;;16.00;8.70;;;;;;;-3.36;76.14;98982.94;101931;1300;61808;-19
2022/11/20 06:38:28;;;;;;;13.80;7.30;;;;;;;-3.57;76.32;98988.36;101875;1296;76226;-19
2022/11/20 06:40:56;;;;;;;14.80;7.20;;;;;;;-3.75;76.91;98992.70;101953;1301;76555;-20
2022/11/20 06:43:24;;;;;;;9.20;4.20;;;;;;;-3.90;77.58;98990.83;101891;1294;75223;-19
2022/11/20 06:45:55;;;;;;;10.80;6.00;;;;;;;-3.92;78.07;98983.94;101903;1296;63200;-19
2022/11/20 06:48:23;;;;;;;12.70;6.10;;;;;;;-3.25;77.83;98973.46;101659;1307;62807;-19
2022/11/20 06:50:50;;;;;;;18.80;9.30;;;;;;;-2.67;76.10;98964.42;102056;1302;76315;-19
2022/11/20 06:53:18;;;;;;;13.80;7.20;;;;;;;-2.58;75.22;98971.14;102100;1301;77406;-20
2022/11/20 06:55:46;;;;;;;13.40;7.60;;;;;;;-2.68;75.23;98981.11;102097;1301;75181;-19
2022/11/20 06:58:14;;;;;;;9.10;5.60;;;;;;;-2.93;75.07;98983.67;102005;1304;62137;-19
2022/11/20 07:00:41;;;;;;;11.30;5.80;;;;;;;-3.12;75.87;98980.09;102120;1303;62727;-20
2022/11/20 07:03:10;;;;;;;12.20;6.90;;;;;;;-3.27;76.46;98980.83;101949;1293;76138;-19
2022/11/20 07:05:40;;;;;;;12.60;7.30;;;;;;;-3.46;77.04;98982.83;101959;1304;76655;-19
2022/11/20 07:08:08;;;;;;;9.30;5.70;;;;;;;-3.59;77.50;98979.95;101913;1294;73835;-20
2022/11/20 07:10:36;;;;;;;8.60;5.30;;;;;;;-3.48;78.37;98976.61;101933;1301;63617;-20
2022/11/20 07:13:04;;;;;;;13.40;8.10;;;;;;;-2.65;77.75;98966.23;101899;1297;62752;-19
2022/11/20 07:15:31;;;;;;;12.40;7.20;;;;;;;-2.17;76.03;98975.04;101930;1304;75850;-19
2022/11/20 07:18:00;;;;;;;14.20;8.20;;;;;;;-2.21;75.05;98970.59;101974;1294;76510;-20
2022/11/20 07:20:27;;;;;;;13.00;7.10;;;;;;;-2.43;75.26;98966.98;102036;1302;73845;-20
2022/11/20 07:22:55;;;;;;;16.30;6.60;;;;;;;-2.71;75.77;98973.06;102100;1301;61094;-19
2022/11/20 07:25:27;;;;;;;12.00;7.30;;;;;;;-2.92;76.51;98981.09;101896;1294;61597;-20
2022/11/20 07:27:58;;;;;;;13.50;7.50;;;;;;;-3.19;77.28;98978.40;101903;1297;76403;-19
2022/11/20 07:30:27;;;;;;;11.90;7.20;;;;;;;-3.31;77.87;98967.36;101744;1300;75841;-19
2022/11/20 07:32:55;;;;;;;11.30;6.20;;;;;;;-3.44;78.50;98955.61;101879;1302;74954;-19
2022/11/20 07:35:23;;;;;;;6.40;4.20;;;;;;;-3.54;79.05;98959.11;102031;1301;61852;-19
2022/11/20 07:37:51;;;;;;;8.10;4.70;;;;;;;-3.17;79.44;98958.47;101922;1302;62896;-20
2022/11/20 07:40:19;;;;;;;8.40;5.20;;;;;;;-2.44;77.86;98955.27;102045;1294;76135;-20
2022/11/20 07:42:50;;;;;;;11.10;6.70;;;;;;;-2.26;76.65;98951.02;102119;1301;76765;-20
2022/11/20 07:45:18;;;;;;;14.50;7.90;;;;;;;-2.37;76.11;98949.27;102010;1297;75227;-20
2022/11/20 07:47:46;;;;;;;12.00;7.30;;;;;;;-2.55;76.12;98947.10;101938;1301;62095;-20
2022/11/20 07:50:14;;;;;;;11.00;6.90;;;;;;;-2.74;76.74;98949.70;102003;1302;61101;-19
2022/11/20 07:52:41;;;;;;;10.10;6.00;;;;;;;-2.94;77.48;98954.81;102133;1301;76242;-20
2022/11/20 07:55:09;;;;;;;8.80;5.50;;;;;;;-3.07;78.02;98954.66;101981;1304;75603;-20
2022/11/20 07:57:37;;;;;;;9.20;4.50;;;;;;;-3.18;78.49;98952.41;101824;1303;75517;-19
2022/11/20 08:00:05;;;;;;;6.70;4.20;;;;;;;-3.16;78.90;98951.85;102002;1301;62392;-20
2022/11/20 08:02:39;;;;;;;13.10;7.10;;;;;;;-2.43;78.03;98946.06;101773;1302;62815;-20
2022/11/20 08:05:08;;;;;;;12.00;7.20;;;;;;;-1.87;76.23;98940.77;101958;1304;76429;-20
2022/11/20 08:07:37;;;;;;;11.10;6.90;;;;;;;-1.84;75.21;98936.95;101862;1299;75642;-19
2022/11/20 08:10:06;;;;;;;16.90;8.70;;;;;;;-2.11;75.53;98933.85;101898;1297;73190;-20
2022/11/20 08:15:20;;;;;;;7.60;5.80;;;;;;;-2.58;76.97;98923.39;102012;1302;63190;-20
2022/11/20 08:17:47;;;;;;;11.30;6.10;;;;;;;-2.74;77.53;98928.59;102078;1294;75232;-21
2022/11/20 08:20:35;;;;;;;8.10;4.40;;;;;;;-2.89;78.45;98941.95;102095;1293;76690;-18
2022/11/20 08:23:05;;;;;;;9.80;6.70;;;;;;;-2.78;78.83;98939.93;101922;1297;75220;-18
2022/11/20 08:25:33;;;;;;;14.90;7.90;;;;;;;-2.01;77.93;98934.73;102010;1298;61815;-18
2022/11/20 08:28:03;;;;;;;6.00;4.10;;;;;;;-1.56;75.97;98925.13;101911;1294;62940;-19
2022/11/20 08:30:45;;;;;;;11.40;6.90;;;;;;;-1.63;75.20;98917.02;101780;1306;75401;-18
2022/11/20 08:33:13;;;;;;;9.60;5.60;;;;;;;-1.81;75.55;98912.33;102005;1294;76946;-18
2022/11/20 08:35:41;;;;;;;11.30;7.40;;;;;;;-2.03;76.04;98913.70;101912;1297;74357;-18
2022/11/20 08:38:09;;;;;;;7.50;5.40;;;;;;;-2.29;76.86;98910.79;101936;1304;62032;-18
2022/11/20 08:40:37;;;;;;;15.40;8.60;;;;;;;-2.44;77.47;98902.92;101863;1301;61761;-18
2022/11/20 08:43:04;;;;;;;8.20;5.20;;;;;;;-2.42;78.22;98888.59;101866;1301;76454;-18
2022/11/20 08:45:32;;;;;;;15.00;5.20;;;;;;;-1.72;77.42;98890.05;101918;1301;76661;-18
2022/11/20 08:48:02;;;;;;;13.40;7.60;;;;;;;-1.40;76.20;98896.14;101906;1301;73082;-19
2022/11/20 08:50:31;;;;;;;5.40;3.80;;;;;;;-1.36;75.57;98897.21;101851;1298;62083;-18
2022/11/20 08:53:04;;;;;;;10.20;6.20;;;;;;;-1.58;75.35;98902.21;101964;1301;62100;-18
2022/11/20 08:55:32;;;;;;;10.90;6.00;;;;;;;-1.82;76.11;98895.17;101890;1304;75164;-18
2022/11/20 08:58:04;;;;;;;7.00;4.90;;;;;;;-1.97;76.76;98878.80;101960;1303;76738;-18
2022/11/20 09:00:32;;;;;;;8.50;6.10;;;;;;;-2.16;77.19;98876.88;101861;1297;75486;-18
2022/11/20 09:03:00;;;;;;;10.60;5.80;;;;;;;-2.30;78.08;98877.64;101892;1298;61419;-18
2022/11/20 09:05:28;;;;;;;11.20;7.70;;;;;;;-1.94;78.12;98871.73;102010;1302;61836;-18
2022/11/20 09:07:57;;;;;;;9.30;5.60;;;;;;;-1.32;76.79;98862.30;101977;1301;74171;-18
2022/11/20 09:10:25;;;;;;;9.70;5.80;;;;;;;-1.14;75.83;98864.58;101894;1298;75598;-19
2022/11/20 09:12:53;;;;;;;12.30;7.00;;;;;;;-1.21;75.59;98864.49;101730;1294;74376;-18
2022/11/20 09:15:21;;;;;;;13.20;7.00;;;;;;;-1.37;75.87;98857.36;101892;1297;61172;-19
2022/11/20 09:18:01;;;;;;;7.90;5.00;;;;;;;-1.49;76.29;98849.64;101927;1293;61478;-18
2022/11/20 09:20:29;;;;;;;12.60;8.10;;;;;;;-1.79;76.58;98848.60;101906;1301;76415;-18
2022/11/20 09:22:57;;;;;;;11.50;5.80;;;;;;;-1.98;77.30;98850.08;101847;1303;76575;-18
2022/11/20 09:25:25;;;;;;;11.80;7.50;;;;;;;-1.79;78.03;98837.56;101938;1301;75201;-18
2022/11/20 09:27:58;;;;;;;7.70;5.80;;;;;;;-1.17;76.82;98824.95;101920;1302;61990;-18
2022/11/20 09:30:26;;;;;;;18.50;10.10;;;;;;;-1.01;75.28;98816.04;101904;1304;61576;-18
2022/11/20 09:32:54;;;;;;;14.00;8.70;;;;;;;-1.18;75.64;98819.05;101939;1304;75404;-18
2022/11/20 09:35:22;;;;;;;14.20;8.40;;;;;;;-1.34;75.80;98811.78;101911;1301;74564;-18
2022/11/20 09:37:49;;;;;;;14.60;8.30;;;;;;;-1.59;76.20;98802.48;101963;1301;72777;-18
2022/11/20 09:40:19;;;;;;;11.40;6.60;;;;;;;-1.86;77.42;98791.14;101949;1301;61838;-18
2022/11/20 09:43:05;;;;;;;10.10;7.00;;;;;;;-2.02;78.19;98786.07;101929;1303;62876;-18
2022/11/20 09:46:03;;;;;;;10.60;6.00;;;;;;;-1.55;78.54;98793.28;101840;1302;76389;-18
2022/11/20 09:48:42;;;;;;;10.40;7.00;;;;;;;-0.95;76.50;98805.23;101830;1287;75766;-19
2022/11/20 09:51:32;;;;;;;9.20;6.30;;;;;;;-0.92;75.76;98807.35;101866;1298;74337;-18
2022/11/20 09:54:20;;;;;;;10.10;6.10;;;;;;;-1.13;75.70;98816.66;101886;1301;61851;-18
2022/11/20 09:57:13;;;;;;;10.50;7.10;;;;;;;-1.34;76.46;98817.09;101836;1293;61549;-19
2022/11/20 09:59:46;;;;;;;13.70;7.40;;;;;;;-1.52;77.23;98821.10;101875;1302;76633;-18
2022/11/20 10:02:23;;;;;;;6.20;3.90;;;;;;;-1.65;77.70;98811.52;101833;1297;76607;-18
2022/11/20 10:05:17;;;;;;;9.10;6.10;;;;;;;-1.21;77.77;98802.27;101776;1304;75468;-18
2022/11/20 10:07:48;;;;;;;13.50;6.00;;;;;;;-0.66;75.75;98792.90;101870;1301;62678;-19
2022/11/20 10:10:40;;;;;;;5.60;3.90;;;;;;;-0.59;75.12;98786.98;101927;1301;62705;-19
2022/11/20 10:13:33;;;;;;;5.70;4.60;;;;;;;-0.79;75.22;98776.52;101839;1300;76439;-18
2022/11/20 10:16:24;;;;;;;9.70;6.60;;;;;;;-1.12;75.73;98774.54;101952;1301;76878;-18
2022/11/20 10:19:04;;;;;;;8.90;5.10;;;;;;;-1.45;76.87;98784.95;101880;1301;75503;-18
2022/11/20 10:21:50;;;;;;;8.90;5.50;;;;;;;-1.62;77.68;98789.64;101970;1294;61180;-19
2022/11/20 10:24:30;;;;;;;9.50;6.10;;;;;;;-1.51;78.30;98794.51;101970;1301;61645;-19
2022/11/20 10:27:23;;;;;;;10.60;5.80;;;;;;;-0.80;76.89;98791.89;101991;1300;76406;-19
2022/11/20 10:30:16;;;;;;;9.10;5.70;;;;;;;-0.50;75.62;98776.75;102121;1300;76777;-19
2022/11/20 10:32:53;;;;;;;7.00;4.70;;;;;;;-0.59;75.42;98775.91;102202;1294;75244;-19
2022/11/20 10:35:28;;;;;;;7.00;4.50;;;;;;;-0.90;75.45;98777.94;101987;1301;61197;-19
2022/11/20 10:38:00;;;;;;;10.80;6.60;;;;;;;-1.13;76.59;98774.92;101810;1300;63144;-19
2022/11/20 10:40:44;;;;;;;8.10;5.90;;;;;;;-1.31;77.35;98770.48;101620;1302;75551;-19
2022/11/20 10:43:21;;;;;;;10.10;6.50;;;;;;;-1.48;77.95;98769.73;101809;1303;76967;-18
2022/11/20 10:45:55;;;;;;;9.90;5.30;;;;;;;-1.18;78.19;98765.90;101927;1295;74934;-19
2022/11/20 10:48:26;;;;;;;12.80;7.80;;;;;;;-0.51;76.46;98765.02;101875;1300;61853;-19
2022/11/20 10:51:03;;;;;;;16.70;10.40;;;;;;;-0.35;75.53;98768.10;101904;1303;61674;-19
2022/11/20 10:53:53;;;;;;;11.60;6.50;;;;;;;-0.38;75.32;98770.98;101939;1301;76011;-19
2022/11/20 10:56:29;;;;;;;10.70;6.10;;;;;;;-0.56;75.35;98767.41;101942;1301;76763;-19
2022/11/20 10:59:35;;;;;;;13.30;8.10;;;;;;;-0.77;75.89;98760.23;101890;1304;75028;-19
2022/11/20 11:02:19;;;;;;;9.70;6.70;;;;;;;-0.94;76.78;98754.11;101884;1301;61897;-19
2022/11/20 11:04:49;;;;;;;6.60;3.80;;;;;;;-1.09;77.20;98756.54;101830;1303;62674;-19
2022/11/20 11:07:18;;;;;;;5.70;3.80;;;;;;;-0.99;77.37;98767.06;101822;1302;76435;-19
2022/11/20 11:09:51;;;;;;;6.60;4.00;;;;;;;-0.32;76.15;98774.97;101939;1301;77025;-20
2022/11/20 11:12:21;;;;;;;11.50;4.90;;;;;;;-0.06;75.05;98772.89;101555;1300;73834;-20
2022/11/20 11:14:50;;;;;;;14.40;7.80;;;;;;;-0.18;75.02;98769.12;101842;1304;62023;-19
2022/11/20 11:17:27;;;;;;;13.60;7.50;;;;;;;-0.45;75.39;98761.52;101997;1295;61708;-20
2022/11/20 11:19:58;;;;;;;12.70;6.40;;;;;;;-0.67;75.84;98752.00;102109;1301;76470;-19
2022/11/20 11:22:26;;;;;;;11.30;7.40;;;;;;;-0.83;76.49;98738.33;101977;1303;75576;-19
2022/11/20 11:24:53;;;;;;;12.50;7.20;;;;;;;-1.01;76.83;98738.33;101887;1304;75220;-19
2022/11/20 11:27:21;;;;;;;11.40;6.30;;;;;;;-1.11;77.80;98747.40;101996;1301;63634;-19
2022/11/20 11:29:49;;;;;;;10.30;6.70;;;;;;;-0.63;78.20;98749.11;101930;1301;61802;-19
2022/11/20 11:32:21;;;;;;;9.70;6.50;;;;;;;-0.04;76.87;98751.61;101887;1301;75738;-20
2022/11/20 11:35:02;;;;;;;5.30;3.20;;;;;;;0.06;75.40;98752.27;101853;1301;76648;-20
2022/11/20 11:37:35;;;;;;;12.20;7.00;;;;;;;-0.19;75.30;98752.29;101973;1295;75195;-19
2022/11/20 11:40:03;;;;;;;10.70;7.20;;;;;;;-0.55;75.95;98752.55;101879;1304;61596;-19
2022/11/20 11:42:59;;;;;;;11.70;7.80;;;;;;;-0.82;76.97;98748.02;101861;1301;61898;-20